Time;durP1;ratioP1;P1;durP2;ratioP2;P2;SDS_P1;SDS_P2;PMS_P1;PMS_P2;Temp;Humidity;BMP_temperature;BMP_pressure;BME280_temperature;BME280_humidity;BME280_pressure;Samples;Min_cycle;Max_cycle;Signal;HPM_P1;HPM_P2
2021/12/17 00:06:53;;;;;;;37.95;24.77;;;;;;;;;;4979459;28;20425;-92
2021/12/17 00:09:19;;;;;;;43.40;28.33;;;;;;;;;;4979137;28;20022;-89
2021/12/17 00:11:45;;;;;;;45.08;27.25;;;;;;;;;;4979195;28;20302;-92
2021/12/17 00:14:17;;;;;;;41.38;26.40;;;;;;;;;;4961826;28;20035;-90
2021/12/17 00:16:43;;;;;;;37.97;24.70;;;;;;;;;;4978878;28;20046;-90
2021/12/17 00:49:27;;;;;;;31.55;21.25;;;;;;;;;;4920236;29;20107;-91
2021/12/17 00:51:59;;;;;;;31.58;21.33;;;;;;;;;;4919787;29;20033;-92
2021/12/17 00:54:36;;;;;;;35.33;23.52;;;;;;;;;;4920955;28;20028;-91
2021/12/17 00:57:05;;;;;;;36.42;22.50;;;;;;;;;;4978784;28;20031;-90
2021/12/17 00:59:31;;;;;;;33.78;22.23;;;;;;;;;;4961446;28;20057;-91
2021/12/17 01:01:59;;;;;;;31.27;20.92;;;;;;;;;;4961351;28;20034;-90
2021/12/17 01:04:25;;;;;;;28.65;20.80;;;;;;;;;;4978859;28;20317;-89
2021/12/17 01:06:51;;;;;;;34.65;23.27;;;;;;;;;;4978691;28;20035;-90
2021/12/17 01:09:18;;;;;;;34.60;23.70;;;;;;;;;;4961599;28;20031;-90
2021/12/17 01:11:45;;;;;;;34.15;23.60;;;;;;;;;;4978629;28;20060;-90
2021/12/17 01:14:11;;;;;;;36.55;26.10;;;;;;;;;;4978535;28;20026;-90
2021/12/17 01:16:37;;;;;;;34.40;23.25;;;;;;;;;;4978369;28;20039;-91
2021/12/17 01:21:54;;;;;;;33.55;22.52;;;;;;;;;;4978632;28;20038;-92
2021/12/17 01:35:38;;;;;;;42.17;24.30;;;;;;;;;;4919826;29;20059;-90
2021/12/17 01:41:17;;;;;;;33.75;22.55;;;;;;;;;;4919680;29;20137;-89
2021/12/17 01:43:45;;;;;;;30.90;21.65;;;;;;;;;;4919110;29;20450;-90
2021/12/17 01:46:13;;;;;;;32.65;21.65;;;;;;;;;;4903252;29;20426;-89
2021/12/17 01:59:40;;;;;;;29.95;20.55;;;;;;;;;;4885083;29;20580;-91
2021/12/17 02:02:07;;;;;;;32.30;21.92;;;;;;;;;;4915286;29;20092;-90
2021/12/17 02:04:34;;;;;;;33.30;21.75;;;;;;;;;;4906279;29;20040;-90
2021/12/17 02:07:01;;;;;;;29.88;21.40;;;;;;;;;;4922376;29;20028;-88
2021/12/17 02:28:47;;;;;;;26.50;18.45;;;;;;;;;;4757142;30;20039;-91
2021/12/17 02:33:39;;;;;;;28.08;20.17;;;;;;;;;;4757255;30;20375;-91
2021/12/17 02:36:06;;;;;;;27.27;20.00;;;;;;;;;;4769690;29;20030;-89
2021/12/17 02:38:39;;;;;;;26.60;19.45;;;;;;;;;;4810785;29;20050;-91
2021/12/17 02:46:37;;;;;;;28.60;19.30;;;;;;;;;;4810633;29;20046;-90
2021/12/17 02:49:03;;;;;;;27.48;19.23;;;;;;;;;;4817774;29;20053;-92
2021/12/17 02:51:29;;;;;;;30.88;19.27;;;;;;;;;;4848754;29;20412;-89
2021/12/17 02:53:55;;;;;;;25.58;18.17;;;;;;;;;;4902800;29;20506;-91
2021/12/17 02:56:22;;;;;;;28.50;18.83;;;;;;;;;;4887002;29;20040;-91
2021/12/17 02:58:48;;;;;;;28.45;18.33;;;;;;;;;;4902640;29;20327;-91
2021/12/17 03:01:14;;;;;;;28.95;19.25;;;;;;;;;;4902364;29;20032;-91
2021/12/17 03:03:41;;;;;;;26.33;18.50;;;;;;;;;;4902516;29;20064;-90
2021/12/17 03:06:08;;;;;;;25.30;17.52;;;;;;;;;;4944733;28;20046;-91
2021/12/17 03:08:34;;;;;;;25.60;17.58;;;;;;;;;;4980422;28;20069;-91
2021/12/17 03:11:01;;;;;;;28.52;18.70;;;;;;;;;;4980214;28;20034;-92
2021/12/17 03:13:30;;;;;;;26.20;18.05;;;;;;;;;;4980148;28;20485;-92
2021/12/17 03:16:21;;;;;;;26.85;18.10;;;;;;;;;;4980116;28;20393;-91
2021/12/17 03:19:13;;;;;;;26.05;18.98;;;;;;;;;;4962764;28;20053;-91
2021/12/17 03:24:20;;;;;;;26.02;17.92;;;;;;;;;;4980262;28;20050;-88
2021/12/17 03:26:46;;;;;;;28.77;18.40;;;;;;;;;;4962987;28;20031;-89
2021/12/17 03:29:14;;;;;;;28.13;18.80;;;;;;;;;;4962650;28;20134;-90
2021/12/17 03:32:17;;;;;;;26.98;18.80;;;;;;;;;;4980097;28;20038;-89
2021/12/17 03:34:43;;;;;;;;;;;;;;;;;;4962796;28;20037;-91
2021/12/17 03:37:09;;;;;;;29.15;18.75;;;;;;;;;;4962819;28;20278;-89
2021/12/17 03:39:37;;;;;;;26.80;18.63;;;;;;;;;;4979611;28;20030;-88
2021/12/17 03:42:06;;;;;;;26.05;17.75;;;;;;;;;;4979956;28;20030;-88
2021/12/17 03:44:33;;;;;;;27.63;18.45;;;;;;;;;;4979707;28;20026;-88
2021/12/17 03:46:59;;;;;;;31.05;18.73;;;;;;;;;;4979536;28;20027;-89
2021/12/17 03:49:26;;;;;;;29.75;19.73;;;;;;;;;;4979516;28;20134;-88
2021/12/17 03:52:16;;;;;;;29.75;19.98;;;;;;;;;;4979260;28;20037;-88
2021/12/17 03:54:38;;;;;;;29.73;20.35;;;;;;;;;;4978836;28;20117;-90
2021/12/17 03:57:07;;;;;;;29.73;20.48;;;;;;;;;;4979601;28;20026;-90
2021/12/17 03:59:34;;;;;;;29.88;20.55;;;;;;;;;;4979302;28;20294;-89
2021/12/17 04:02:00;;;;;;;29.25;18.95;;;;;;;;;;4979454;28;20030;-92
2021/12/17 04:04:26;;;;;;;26.70;17.88;;;;;;;;;;4979658;28;20045;-89
2021/12/17 04:06:52;;;;;;;27.63;18.98;;;;;;;;;;4961985;28;20034;-92
2021/12/17 04:09:21;;;;;;;29.42;20.08;;;;;;;;;;4961941;28;20034;-91
2021/12/17 04:11:47;;;;;;;28.45;20.38;;;;;;;;;;4962025;28;20027;-92
2021/12/17 04:14:13;;;;;;;30.63;19.80;;;;;;;;;;4979039;28;20029;-91
2021/12/17 04:16:39;;;;;;;25.48;17.77;;;;;;;;;;4961909;28;20130;-91
2021/12/17 04:19:05;;;;;;;26.90;18.73;;;;;;;;;;4978405;28;20030;-91
2021/12/17 04:21:32;;;;;;;29.52;18.45;;;;;;;;;;4979018;28;20035;-91
2021/12/17 04:23:58;;;;;;;21.88;15.60;;;;;;;;;;4979136;28;20101;-93
2021/12/17 04:26:25;;;;;;;21.00;15.65;;;;;;;;;;4978899;28;20037;-91
2021/12/17 04:28:53;;;;;;;22.27;16.17;;;;;;;;;;4961724;28;20035;-93
2021/12/17 04:31:21;;;;;;;20.83;15.15;;;;;;;;;;4961915;28;20031;-94
2021/12/17 04:33:47;;;;;;;22.63;16.70;;;;;;;;;;4961499;28;20042;-93
2021/12/17 04:36:18;;;;;;;19.75;13.57;;;;;;;;;;4978787;28;20402;-93
2021/12/17 04:38:44;;;;;;;18.52;13.73;;;;;;;;;;4961969;28;20023;-95
2021/12/17 04:41:38;;;;;;;20.60;14.10;;;;;;;;;;4978547;28;20078;-93
2021/12/17 04:57:51;;;;;;;17.83;12.93;;;;;;;;;;4978998;28;20045;-93
2021/12/17 05:00:23;;;;;;;18.50;13.05;;;;;;;;;;4978908;28;20129;-92
2021/12/17 05:02:52;;;;;;;19.23;12.00;;;;;;;;;;4978646;28;20046;-93
2021/12/17 05:05:20;;;;;;;18.50;12.38;;;;;;;;;;4961652;28;20038;-93
2021/12/17 05:07:51;;;;;;;17.15;12.20;;;;;;;;;;4978952;28;20027;-94
2021/12/17 05:21:29;;;;;;;21.35;15.18;;;;;;;;;;4845157;29;19962;-93
2021/12/17 05:23:55;;;;;;;19.67;14.10;;;;;;;;;;4845098;29;20049;-93
2021/12/17 05:26:22;;;;;;;19.83;13.98;;;;;;;;;;4844701;29;20046;-94
2021/12/17 05:28:48;;;;;;;18.92;14.85;;;;;;;;;;4845006;29;20350;-93
2021/12/17 05:31:21;;;;;;;21.73;14.20;;;;;;;;;;4832853;29;20030;-92
2021/12/17 05:33:48;;;;;;;19.75;13.63;;;;;;;;;;4848662;29;20075;-92
2021/12/17 05:36:14;;;;;;;19.88;14.10;;;;;;;;;;4848427;29;20030;-93
2021/12/17 05:38:40;;;;;;;19.55;14.02;;;;;;;;;;4832846;29;20041;-93
2021/12/17 05:41:06;;;;;;;19.40;13.85;;;;;;;;;;4833040;29;20044;-94
2021/12/17 05:43:36;;;;;;;17.80;12.90;;;;;;;;;;4848125;29;20041;-93
2021/12/17 05:46:08;;;;;;;20.48;13.27;;;;;;;;;;4848086;29;20062;-92
2021/12/17 05:48:34;;;;;;;27.87;18.30;;;;;;;;;;4848259;29;20049;-95
2021/12/17 05:51:01;;;;;;;19.73;15.40;;;;;;;;;;4848371;29;20030;-94
2021/12/17 05:53:28;;;;;;;18.10;13.23;;;;;;;;;;4900879;29;20067;-92
2021/12/17 05:55:55;;;;;;;18.30;13.50;;;;;;;;;;4903865;29;20028;-93
2021/12/17 05:58:21;;;;;;;22.77;13.23;;;;;;;;;;4939806;28;20165;-93
2021/12/17 06:00:47;;;;;;;19.48;13.85;;;;;;;;;;4964636;28;20101;-93
2021/12/17 06:03:14;;;;;;;18.63;13.65;;;;;;;;;;4964624;28;20027;-94
2021/12/17 06:05:40;;;;;;;17.83;12.80;;;;;;;;;;4981857;28;20098;-94
2021/12/17 06:08:06;;;;;;;18.95;14.02;;;;;;;;;;4964595;28;20033;-94
2021/12/17 06:10:33;;;;;;;18.67;13.43;;;;;;;;;;4981343;28;20054;-94
2021/12/17 06:12:59;;;;;;;27.73;17.10;;;;;;;;;;4981444;28;20019;-92
2021/12/17 06:15:26;;;;;;;24.38;15.95;;;;;;;;;;4963637;28;20414;-91
2021/12/17 06:17:52;;;;;;;21.95;14.75;;;;;;;;;;4981192;28;20055;-93
2021/12/17 06:20:19;;;;;;;26.38;15.75;;;;;;;;;;4981587;28;20031;-95
2021/12/17 06:22:46;;;;;;;26.10;16.52;;;;;;;;;;4964237;28;20077;-93
2021/12/17 06:25:12;;;;;;;27.15;15.45;;;;;;;;;;4963841;28;20112;-93
2021/12/17 06:27:38;;;;;;;23.25;15.00;;;;;;;;;;4963755;28;20042;-92
2021/12/17 06:30:06;;;;;;;24.88;14.93;;;;;;;;;;4981244;28;20031;-93
2021/12/17 06:32:32;;;;;;;24.30;15.10;;;;;;;;;;4981380;28;20035;-95
2021/12/17 06:34:58;;;;;;;24.25;14.77;;;;;;;;;;4981143;28;20110;-96
2021/12/17 06:37:24;;;;;;;25.25;14.57;;;;;;;;;;4980895;28;20023;-95
2021/12/17 06:39:50;;;;;;;27.17;15.77;;;;;;;;;;4980979;28;20039;-94
2021/12/17 06:42:16;;;;;;;25.63;15.15;;;;;;;;;;4962988;28;20031;-94
2021/12/17 06:44:43;;;;;;;29.20;17.42;;;;;;;;;;4963741;28;20023;-92
2021/12/17 06:54:37;;;;;;;26.13;14.63;;;;;;;;;;4921638;29;20082;-94
2021/12/17 07:01:13;;;;;;;28.80;16.42;;;;;;;;;;4921865;29;20092;-96
2021/12/17 07:17:10;;;;;;;30.38;17.88;;;;;;;;;;4921283;29;20184;-95
2021/12/17 07:22:27;;;;;;;25.70;14.80;;;;;;;;;;4921512;29;20491;-95
2021/12/17 07:40:52;;;;;;;22.08;16.48;;;;;;;;;;4961329;28;20042;-94
2021/12/17 07:43:34;;;;;;;23.00;15.38;;;;;;;;;;4962484;28;20042;-92
2021/12/17 07:46:00;;;;;;;25.52;16.95;;;;;;;;;;4962365;28;20034;-94
2021/12/17 07:48:27;;;;;;;20.08;14.05;;;;;;;;;;4979544;28;20413;-93
2021/12/17 07:50:53;;;;;;;18.95;14.20;;;;;;;;;;4979441;28;20034;-92
2021/12/17 07:53:19;;;;;;;22.48;15.18;;;;;;;;;;4979304;28;20057;-92
2021/12/17 07:55:45;;;;;;;27.92;16.98;;;;;;;;;;4979486;28;20034;-93
2021/12/17 07:58:11;;;;;;;26.67;17.60;;;;;;;;;;4979063;28;20031;-93
2021/12/17 08:00:37;;;;;;;23.38;15.20;;;;;;;;;;4979554;28;20073;-94
2021/12/17 08:03:03;;;;;;;21.05;15.68;;;;;;;;;;4979391;28;20039;-94
2021/12/17 08:05:29;;;;;;;27.40;17.88;;;;;;;;;;4979657;28;20061;-95
2021/12/17 08:07:55;;;;;;;24.05;15.82;;;;;;;;;;4979163;28;20484;-92
2021/12/17 08:10:21;;;;;;;21.58;15.45;;;;;;;;;;4979116;28;20393;-94
2021/12/17 08:12:48;;;;;;;27.10;17.90;;;;;;;;;;4979207;28;20027;-94
2021/12/17 08:15:14;;;;;;;47.25;30.35;;;;;;;;;;4961477;28;20034;-92
2021/12/17 08:28:16;;;;;;;20.75;13.77;;;;;;;;;;4920310;29;20035;-93
2021/12/17 08:30:42;;;;;;;18.58;12.43;;;;;;;;;;4919967;29;20044;-93
2021/12/17 08:33:08;;;;;;;18.95;12.65;;;;;;;;;;4919698;29;20030;-89
2021/12/17 08:35:38;;;;;;;20.95;12.82;;;;;;;;;;4919710;29;20384;-89
2021/12/17 08:38:07;;;;;;;19.88;13.35;;;;;;;;;;4919782;29;20033;-90
2021/12/17 08:40:34;;;;;;;22.90;14.35;;;;;;;;;;4903725;29;20066;-89
2021/12/17 08:43:01;;;;;;;21.08;13.55;;;;;;;;;;4903687;29;20044;-89
2021/12/17 08:45:28;;;;;;;18.92;13.25;;;;;;;;;;4919676;29;20040;-89
2021/12/17 08:47:54;;;;;;;21.08;13.13;;;;;;;;;;4903918;29;20032;-90
2021/12/17 08:50:21;;;;;;;18.90;12.32;;;;;;;;;;4919752;29;20044;-88
2021/12/17 08:52:47;;;;;;;20.13;11.98;;;;;;;;;;4919611;29;20052;-88
2021/12/17 08:55:13;;;;;;;18.42;13.10;;;;;;;;;;4919632;29;20124;-89
2021/12/17 08:57:40;;;;;;;19.15;13.10;;;;;;;;;;4952485;28;20081;-91
2021/12/17 09:00:08;;;;;;;18.50;12.88;;;;;;;;;;4978640;28;20313;-90
2021/12/17 09:02:36;;;;;;;20.65;13.55;;;;;;;;;;4978622;28;20023;-91
2021/12/17 09:05:03;;;;;;;17.30;13.23;;;;;;;;;;4980264;28;20053;-90
2021/12/17 09:07:29;;;;;;;18.17;12.60;;;;;;;;;;4982576;28;20389;-90
2021/12/17 09:09:55;;;;;;;19.42;13.40;;;;;;;;;;4965462;28;20027;-91
2021/12/17 09:12:21;;;;;;;16.55;11.65;;;;;;;;;;4982545;28;20480;-92
2021/12/17 09:14:47;;;;;;;23.95;13.05;;;;;;;;;;4965419;28;20031;-91
2021/12/17 09:17:13;;;;;;;17.20;12.48;;;;;;;;;;4982575;28;20026;-90
2021/12/17 09:19:40;;;;;;;47.97;24.95;;;;;;;;;;4965028;28;20078;-91
2021/12/17 09:22:06;;;;;;;70.93;34.40;;;;;;;;;;4964901;28;20070;-91
2021/12/17 09:24:32;;;;;;;74.95;38.95;;;;;;;;;;4982168;28;20034;-94
2021/12/17 09:26:58;;;;;;;53.75;30.10;;;;;;;;;;4982175;28;20142;-95
2021/12/17 09:29:24;;;;;;;38.65;22.00;;;;;;;;;;4982724;28;20054;-94
2021/12/17 09:31:51;;;;;;;23.20;14.27;;;;;;;;;;4981899;28;20356;-94
2021/12/17 09:34:17;;;;;;;20.10;12.73;;;;;;;;;;4982416;28;20027;-94
2021/12/17 09:36:43;;;;;;;19.05;11.85;;;;;;;;;;4982173;28;20409;-94
2021/12/17 09:39:09;;;;;;;18.60;11.52;;;;;;;;;;4982217;28;20058;-96
2021/12/17 09:41:35;;;;;;;18.85;11.50;;;;;;;;;;4964760;28;20027;-95
2021/12/17 09:44:02;;;;;;;17.20;11.20;;;;;;;;;;4964855;28;20030;-94
2021/12/17 09:46:28;;;;;;;17.65;11.63;;;;;;;;;;4964849;28;20054;-94
2021/12/17 09:48:54;;;;;;;14.23;10.43;;;;;;;;;;4981751;28;20047;-95
2021/12/17 09:51:21;;;;;;;16.33;11.25;;;;;;;;;;4981821;28;20041;-95
2021/12/17 09:53:48;;;;;;;19.92;11.63;;;;;;;;;;4964470;28;20031;-94
2021/12/17 09:56:14;;;;;;;17.55;11.48;;;;;;;;;;4982031;28;20349;-96
2021/12/17 09:58:41;;;;;;;18.48;12.15;;;;;;;;;;4964963;28;20018;-96
2021/12/17 10:01:07;;;;;;;19.15;11.98;;;;;;;;;;4964663;28;20037;-94
2021/12/17 10:03:33;;;;;;;22.40;12.63;;;;;;;;;;4964795;28;20033;-93
2021/12/17 10:05:59;;;;;;;18.23;12.30;;;;;;;;;;4964880;28;20472;-94
2021/12/17 10:08:25;;;;;;;18.92;13.77;;;;;;;;;;4964515;28;20027;-94
2021/12/17 10:10:59;;;;;;;17.10;11.60;;;;;;;;;;4981581;28;20070;-96
2021/12/17 10:13:26;;;;;;;19.92;12.13;;;;;;;;;;4981357;28;20027;-95
2021/12/17 10:15:57;;;;;;;17.10;11.02;;;;;;;;;;4980393;28;20019;-95
2021/12/17 10:18:37;;;;;;;19.42;11.20;;;;;;;;;;4980982;28;20057;-95
2021/12/17 10:21:07;;;;;;;17.92;12.63;;;;;;;;;;4963789;28;20039;-95
2021/12/17 10:23:34;;;;;;;16.33;10.80;;;;;;;;;;4981235;28;20029;-95
2021/12/17 10:26:00;;;;;;;19.88;11.57;;;;;;;;;;4963721;28;20035;-94
2021/12/17 10:28:27;;;;;;;19.08;10.55;;;;;;;;;;4981312;28;20102;-93
2021/12/17 10:30:55;;;;;;;16.20;11.13;;;;;;;;;;4980909;28;20027;-95
2021/12/17 10:33:24;;;;;;;17.67;10.90;;;;;;;;;;4981163;28;20037;-95
2021/12/17 10:35:51;;;;;;;20.77;11.90;;;;;;;;;;4980971;28;20027;-96
2021/12/17 10:38:19;;;;;;;20.67;11.93;;;;;;;;;;4981059;28;20023;-95
2021/12/17 10:40:51;;;;;;;19.88;12.82;;;;;;;;;;4964058;28;20038;-95
2021/12/17 10:43:23;;;;;;;19.55;12.57;;;;;;;;;;4980967;28;20110;-94
2021/12/17 10:51:04;;;;;;;21.17;12.45;;;;;;;;;;4980553;28;20155;-95
2021/12/17 10:53:30;;;;;;;23.80;13.85;;;;;;;;;;4963355;28;20125;-94
2021/12/17 10:55:56;;;;;;;27.83;14.68;;;;;;;;;;4980635;28;20027;-96
2021/12/17 10:58:23;;;;;;;20.98;13.55;;;;;;;;;;4980770;28;20027;-95
2021/12/17 11:01:01;;;;;;;22.00;12.82;;;;;;;;;;4963597;28;20075;-94
2021/12/17 11:03:27;;;;;;;24.60;14.15;;;;;;;;;;4980760;28;20102;-94
2021/12/17 11:05:54;;;;;;;22.10;13.50;;;;;;;;;;4963604;28;20027;-93
2021/12/17 11:08:39;;;;;;;22.73;13.38;;;;;;;;;;4962240;28;20058;-93
2021/12/17 11:11:09;;;;;;;23.38;13.95;;;;;;;;;;4980160;28;20030;-94
2021/12/17 11:13:36;;;;;;;24.50;13.32;;;;;;;;;;4963052;28;20019;-94
2021/12/17 11:16:21;;;;;;;29.80;17.27;;;;;;;;;;4980097;28;20027;-92
2021/12/17 11:18:48;;;;;;;42.13;24.00;;;;;;;;;;4962995;28;20054;-94
2021/12/17 11:21:15;;;;;;;29.80;16.77;;;;;;;;;;4962977;28;20037;-96
2021/12/17 11:23:41;;;;;;;35.67;21.25;;;;;;;;;;4964005;28;20023;-93
2021/12/17 11:26:07;;;;;;;32.28;20.02;;;;;;;;;;4962810;28;20038;-93
2021/12/17 11:28:33;;;;;;;31.80;16.20;;;;;;;;;;4979747;28;20030;-94
2021/12/17 11:31:00;;;;;;;37.47;20.75;;;;;;;;;;4980272;28;20030;-94
2021/12/17 11:33:27;;;;;;;58.70;30.65;;;;;;;;;;4980155;28;20047;-93
2021/12/17 11:35:53;;;;;;;50.92;25.40;;;;;;;;;;4979835;28;20065;-94
2021/12/17 11:38:25;;;;;;;50.65;25.75;;;;;;;;;;4980028;28;20026;-93
2021/12/17 11:40:54;;;;;;;63.63;33.47;;;;;;;;;;4980071;28;20077;-94
2021/12/17 11:43:48;;;;;;;34.28;19.38;;;;;;;;;;4962842;28;20035;-94
2021/12/17 11:46:14;;;;;;;46.65;25.27;;;;;;;;;;4979515;28;20077;-93
2021/12/17 11:48:45;;;;;;;29.63;16.40;;;;;;;;;;4962614;28;20126;-93
2021/12/17 11:51:12;;;;;;;25.73;13.40;;;;;;;;;;4962567;28;20058;-93
2021/12/17 11:53:43;;;;;;;33.08;16.48;;;;;;;;;;4979893;28;20329;-91
2021/12/17 11:56:10;;;;;;;30.13;15.00;;;;;;;;;;4978012;28;20313;-92
2021/12/17 11:58:48;;;;;;;31.98;15.88;;;;;;;;;;4979956;28;20023;-93
2021/12/17 12:01:34;;;;;;;28.58;15.38;;;;;;;;;;4962207;28;20023;-93
2021/12/17 12:04:20;;;;;;;19.83;11.57;;;;;;;;;;4979372;28;20031;-93
2021/12/17 12:06:59;;;;;;;21.30;12.88;;;;;;;;;;4979714;28;20140;-94
2021/12/17 12:09:43;;;;;;;22.42;13.07;;;;;;;;;;4979718;28;20027;-94
2021/12/17 12:12:10;;;;;;;17.75;12.00;;;;;;;;;;4979105;28;20425;-95
2021/12/17 12:14:36;;;;;;;19.83;10.27;;;;;;;;;;4979105;28;20027;-96
2021/12/17 12:17:02;;;;;;;21.17;11.35;;;;;;;;;;4979059;28;20027;-94
2021/12/17 12:19:48;;;;;;;18.88;10.48;;;;;;;;;;4979303;28;20062;-93
2021/12/17 12:22:14;;;;;;;19.20;11.38;;;;;;;;;;4962012;28;20030;-94
2021/12/17 12:24:40;;;;;;;19.92;10.95;;;;;;;;;;4979299;28;20317;-93
2021/12/17 12:27:06;;;;;;;19.50;11.60;;;;;;;;;;4979315;28;20421;-93
2021/12/17 12:29:34;;;;;;;16.95;10.50;;;;;;;;;;4978370;28;20035;-94
2021/12/17 12:32:12;;;;;;;20.15;10.32;;;;;;;;;;4978924;28;20477;-92
2021/12/17 12:34:40;;;;;;;14.80;9.95;;;;;;;;;;4962064;28;20031;-92
2021/12/17 12:37:08;;;;;;;20.42;12.68;;;;;;;;;;4978904;28;20401;-94
2021/12/17 12:40:01;;;;;;;19.13;10.95;;;;;;;;;;4978109;28;20026;-92
2021/12/17 12:42:35;;;;;;;19.00;10.82;;;;;;;;;;4961476;28;20026;-93
2021/12/17 12:45:07;;;;;;;15.45;10.07;;;;;;;;;;4961803;28;20356;-93
2021/12/17 12:47:36;;;;;;;18.73;10.60;;;;;;;;;;4961942;28;20042;-93
2021/12/17 12:50:08;;;;;;;17.63;10.00;;;;;;;;;;4961770;28;20265;-93
2021/12/17 12:52:39;;;;;;;21.55;11.60;;;;;;;;;;4978803;28;20023;-92
2021/12/17 12:55:05;;;;;;;30.38;14.65;;;;;;;;;;4961641;28;20070;-91
2021/12/17 12:57:31;;;;;;;20.45;11.50;;;;;;;;;;4978723;28;20113;-91
2021/12/17 12:59:58;;;;;;;19.02;11.80;;;;;;;;;;4978735;28;20030;-93
2021/12/17 13:02:25;;;;;;;24.35;12.88;;;;;;;;;;4978287;28;20019;-92
2021/12/17 13:04:55;;;;;;;23.08;13.25;;;;;;;;;;4978812;28;20049;-91
2021/12/17 13:07:31;;;;;;;62.95;21.67;;;;;;;;;;4978580;28;20420;-91
2021/12/17 13:09:59;;;;;;;32.38;16.17;;;;;;;;;;4978544;28;20027;-93
2021/12/17 13:12:25;;;;;;;62.33;22.85;;;;;;;;;;4980172;28;20048;-94
2021/12/17 13:14:56;;;;;;;82.60;24.25;;;;;;;;;;4979365;28;20298;-95
2021/12/17 13:17:40;;;;;;;63.92;19.50;;;;;;;;;;4978590;28;20046;-93
2021/12/17 13:20:41;;;;;;;25.90;12.60;;;;;;;;;;4978360;28;20038;-96
2021/12/17 13:23:13;;;;;;;15.20;9.13;;;;;;;;;;4978271;28;20073;-95
2021/12/17 13:25:39;;;;;;;18.85;9.73;;;;;;;;;;4978462;28;20037;-94
2021/12/17 13:28:05;;;;;;;14.63;8.43;;;;;;;;;;4961387;28;20317;-96
2021/12/17 13:30:31;;;;;;;14.63;9.80;;;;;;;;;;4978310;28;20069;-96
2021/12/17 13:32:57;;;;;;;19.45;10.13;;;;;;;;;;4978415;28;20042;-95
2021/12/17 13:35:24;;;;;;;17.38;10.52;;;;;;;;;;4961440;28;20043;-95
2021/12/17 13:37:57;;;;;;;16.23;10.02;;;;;;;;;;4978209;28;20049;-96
2021/12/17 13:40:25;;;;;;;21.67;11.48;;;;;;;;;;4978414;28;20031;-94
2021/12/17 13:42:51;;;;;;;22.67;11.75;;;;;;;;;;4978365;28;20034;-94
2021/12/17 13:45:20;;;;;;;27.05;11.82;;;;;;;;;;4961281;28;20022;-94
2021/12/17 13:47:46;;;;;;;19.50;10.73;;;;;;;;;;4978180;28;20023;-94
2021/12/17 13:50:24;;;;;;;15.77;10.40;;;;;;;;;;4961117;28;20029;-94
2021/12/17 13:52:55;;;;;;;48.58;25.08;;;;;;;;;;4981974;28;20101;-94
2021/12/17 13:55:33;;;;;;;99.40;36.88;;;;;;;;;;4981899;28;20019;-94
2021/12/17 13:58:02;;;;;;;108.00;38.13;;;;;;;;;;4981904;28;20030;-93
2021/12/17 14:00:33;;;;;;;45.75;20.88;;;;;;;;;;4981672;28;20034;-93
2021/12/17 14:03:00;;;;;;;28.85;15.73;;;;;;;;;;4964510;28;20023;-94
2021/12/17 14:05:29;;;;;;;23.70;13.32;;;;;;;;;;4981692;28;20019;-94
2021/12/17 14:07:59;;;;;;;28.15;13.80;;;;;;;;;;4964636;28;20019;-94
2021/12/17 14:10:30;;;;;;;26.92;14.93;;;;;;;;;;4964376;28;20317;-94
2021/12/17 14:12:56;;;;;;;27.20;15.68;;;;;;;;;;4982366;28;20038;-91
2021/12/17 14:15:24;;;;;;;25.42;15.57;;;;;;;;;;4981168;28;20031;-90
2021/12/17 14:17:53;;;;;;;33.10;19.35;;;;;;;;;;4981457;28;20131;-91
2021/12/17 14:20:22;;;;;;;33.25;20.85;;;;;;;;;;4964317;28;20027;-89
2021/12/17 14:22:49;;;;;;;33.40;22.60;;;;;;;;;;4963814;28;20039;-89
2021/12/17 14:25:24;;;;;;;29.42;17.73;;;;;;;;;;4964078;28;20019;-90
2021/12/17 14:27:51;;;;;;;26.70;16.80;;;;;;;;;;4981132;28;20019;-90
2021/12/17 14:30:22;;;;;;;22.55;14.23;;;;;;;;;;4963645;28;20062;-90
2021/12/17 14:32:49;;;;;;;20.35;13.02;;;;;;;;;;4964300;28;20058;-89
2021/12/17 14:35:16;;;;;;;17.65;12.88;;;;;;;;;;4981050;28;20043;-90
2021/12/17 14:37:56;;;;;;;18.13;12.25;;;;;;;;;;4980926;28;20026;-89
2021/12/17 14:40:30;;;;;;;20.30;10.20;;;;;;;;;;4964110;28;20117;-90
2021/12/17 14:42:58;;;;;;;16.15;9.98;;;;;;;;;;4981071;28;20031;-90
2021/12/17 14:45:41;;;;;;;16.33;10.32;;;;;;;;;;4980604;28;20054;-90
2021/12/17 14:48:19;;;;;;;18.63;10.07;;;;;;;;;;4980654;28;20031;-91
2021/12/17 15:00:18;;;;;;;26.67;15.05;;;;;;;;;;4980927;28;20034;-89
2021/12/17 15:02:25;;;;;;;24.77;14.73;;;;;;;;;;4979427;28;20077;-91
2021/12/17 15:04:51;;;;;;;29.80;13.43;;;;;;;;;;4980694;28;20023;-90
2021/12/17 15:07:20;;;;;;;26.23;14.30;;;;;;;;;;4963522;28;20038;-89
2021/12/17 15:09:46;;;;;;;24.90;14.45;;;;;;;;;;4963284;28;20412;-91
2021/12/17 15:14:58;;;;;;;23.63;13.07;;;;;;;;;;4980466;28;20031;-90
2021/12/17 15:17:24;;;;;;;19.08;11.07;;;;;;;;;;4980225;28;20038;-90
2021/12/17 15:19:50;;;;;;;19.15;12.40;;;;;;;;;;4962876;28;20038;-90
2021/12/17 15:22:16;;;;;;;18.48;11.60;;;;;;;;;;4980205;28;20413;-89
2021/12/17 15:24:42;;;;;;;19.20;11.68;;;;;;;;;;4980200;28;20294;-90
2021/12/17 15:27:13;;;;;;;19.65;12.20;;;;;;;;;;4980462;28;20058;-93
2021/12/17 15:29:40;;;;;;;29.92;15.30;;;;;;;;;;4979773;28;20027;-91
2021/12/17 15:32:06;;;;;;;46.25;22.73;;;;;;;;;;4979793;28;20033;-91
2021/12/17 15:34:32;;;;;;;41.90;23.73;;;;;;;;;;4962909;28;20329;-90
2021/12/17 15:36:59;;;;;;;32.25;19.65;;;;;;;;;;4980184;28;20029;-90
2021/12/17 15:39:28;;;;;;;27.52;15.95;;;;;;;;;;4979829;28;20026;-91
2021/12/17 15:41:55;;;;;;;25.27;13.65;;;;;;;;;;4979855;28;20054;-90
2021/12/17 15:44:21;;;;;;;24.58;13.65;;;;;;;;;;4962485;28;20341;-91
2021/12/17 15:46:49;;;;;;;19.92;11.32;;;;;;;;;;4962481;28;20039;-90
2021/12/17 15:49:15;;;;;;;21.00;11.43;;;;;;;;;;4979791;28;20035;-90
2021/12/17 15:51:42;;;;;;;23.20;11.63;;;;;;;;;;4979441;28;20031;-91
2021/12/17 15:54:08;;;;;;;24.00;13.95;;;;;;;;;;4979545;28;20030;-91
2021/12/17 15:56:34;;;;;;;24.75;16.40;;;;;;;;;;4962099;28;20031;-91
2021/12/17 15:59:01;;;;;;;21.40;12.38;;;;;;;;;;4979618;28;20046;-92
2021/12/17 16:01:27;;;;;;;19.08;11.70;;;;;;;;;;4961973;28;20041;-91
2021/12/17 16:03:53;;;;;;;19.83;11.07;;;;;;;;;;4962392;28;20023;-91
2021/12/17 16:06:20;;;;;;;26.38;12.77;;;;;;;;;;4962456;28;20321;-91
2021/12/17 16:08:50;;;;;;;23.77;12.88;;;;;;;;;;4979513;28;20332;-91
2021/12/17 16:16:54;;;;;;;18.27;11.52;;;;;;;;;;4979478;28;20042;-92
2021/12/17 16:22:05;;;;;;;21.15;11.00;;;;;;;;;;4979500;28;20041;-93
2021/12/17 16:24:31;;;;;;;17.20;10.00;;;;;;;;;;4978852;28;20026;-93
2021/12/17 16:26:57;;;;;;;17.23;10.32;;;;;;;;;;4979145;28;20034;-92
2021/12/17 16:29:23;;;;;;;18.75;11.55;;;;;;;;;;4962238;28;20027;-91
2021/12/17 16:31:50;;;;;;;25.33;11.73;;;;;;;;;;4978693;28;20058;-91
2021/12/17 16:34:16;;;;;;;20.85;11.48;;;;;;;;;;4978935;28;20492;-92
2021/12/17 16:36:43;;;;;;;21.48;11.73;;;;;;;;;;4979210;28;20031;-93
2021/12/17 16:39:11;;;;;;;23.58;12.50;;;;;;;;;;4978841;28;20019;-92
2021/12/17 16:41:37;;;;;;;27.30;12.25;;;;;;;;;;4979043;28;20030;-91
2021/12/17 16:44:07;;;;;;;27.30;14.93;;;;;;;;;;4961945;28;20030;-92
2021/12/17 16:49:07;;;;;;;86.50;39.10;;;;;;;;;;4978854;28;20081;-90
2021/12/17 16:51:33;;;;;;;38.78;20.75;;;;;;;;;;4979011;28;20031;-91
2021/12/17 16:54:00;;;;;;;31.02;18.23;;;;;;;;;;4978879;28;20023;-91
2021/12/17 16:56:26;;;;;;;21.50;11.88;;;;;;;;;;4979105;28;20223;-91
2021/12/17 16:58:52;;;;;;;20.50;10.07;;;;;;;;;;4961520;28;20069;-90
2021/12/17 17:01:18;;;;;;;21.27;9.98;;;;;;;;;;4978691;28;20023;-91
2021/12/17 17:03:47;;;;;;;22.05;11.52;;;;;;;;;;4978679;28;20031;-91
2021/12/17 17:06:14;;;;;;;23.45;11.13;;;;;;;;;;4978357;28;20029;-91
2021/12/17 17:08:40;;;;;;;21.45;10.98;;;;;;;;;;4978400;28;20401;-92
2021/12/17 17:11:08;;;;;;;20.33;10.13;;;;;;;;;;4978708;28;20115;-92
2021/12/17 17:13:35;;;;;;;37.40;16.63;;;;;;;;;;4978800;28;20030;-91
2021/12/17 17:16:05;;;;;;;26.60;12.75;;;;;;;;;;4961532;28;20477;-92
2021/12/17 17:18:38;;;;;;;30.95;16.40;;;;;;;;;;4961592;28;20147;-92
2021/12/17 17:21:06;;;;;;;25.83;16.13;;;;;;;;;;4978574;28;20443;-92
2021/12/17 17:23:33;;;;;;;25.77;14.52;;;;;;;;;;4961970;28;20035;-90
2021/12/17 17:26:00;;;;;;;27.90;15.50;;;;;;;;;;4980530;28;20035;-91
2021/12/17 17:28:26;;;;;;;31.80;15.85;;;;;;;;;;4965255;28;20122;-91
2021/12/17 17:30:54;;;;;;;28.73;16.58;;;;;;;;;;4982021;28;20041;-91
2021/12/17 17:33:21;;;;;;;35.28;16.50;;;;;;;;;;4982405;28;20294;-92
2021/12/17 17:35:47;;;;;;;39.67;18.88;;;;;;;;;;4964848;28;20042;-93
2021/12/17 17:38:13;;;;;;;27.95;14.20;;;;;;;;;;4964980;28;20321;-92
2021/12/17 17:40:39;;;;;;;33.65;17.15;;;;;;;;;;4982083;28;20050;-92
2021/12/17 17:43:08;;;;;;;28.33;13.57;;;;;;;;;;4982117;28;20309;-92
2021/12/17 17:45:36;;;;;;;26.38;12.23;;;;;;;;;;4964282;28;20472;-93
2021/12/17 17:48:03;;;;;;;23.02;12.23;;;;;;;;;;4982050;28;20045;-91